Time;durP1;ratioP1;P1;durP2;ratioP2;P2;SDS_P1;SDS_P2;PMS_P1;PMS_P2;Temp;Humidity;BMP_temperature;BMP_pressure;BME280_temperature;BME280_humidity;BME280_pressure;Samples;Min_cycle;Max_cycle;Signal;HPM_P1;HPM_P2
2021/12/15 00:00:44;;;;;;;50.50;25.70;;;;;;;5.23;56.34;99727.25;4503908;31;20132;-80
2021/12/15 00:03:10;;;;;;;49.70;25.15;;;;;;;5.04;56.59;99717.13;4489496;31;20127;-81
2021/12/15 00:05:36;;;;;;;51.35;24.60;;;;;;;5.25;56.34;99723.75;4503807;31;20118;-81
2021/12/15 00:08:04;;;;;;;50.03;24.10;;;;;;;5.19;56.35;99721.22;4476293;31;20072;-81
2021/12/15 00:10:30;;;;;;;47.47;23.87;;;;;;;5.26;56.02;99715.00;4503799;31;20080;-81
2021/12/15 00:12:56;;;;;;;51.35;25.30;;;;;;;5.25;55.96;99718.50;4503993;31;20163;-81
2021/12/15 00:15:23;;;;;;;49.00;24.50;;;;;;;5.25;56.01;99712.41;4489498;31;20484;-81
2021/12/15 00:17:49;;;;;;;51.03;25.00;;;;;;;5.16;56.00;99707.34;4503654;31;20379;-81
2021/12/15 00:20:15;;;;;;;50.58;24.75;;;;;;;5.18;56.26;99710.81;4476170;31;20607;-81
2021/12/15 00:22:42;;;;;;;47.00;24.00;;;;;;;5.27;56.05;99708.00;4489359;31;20136;-81
2021/12/15 00:25:10;;;;;;;50.97;23.67;;;;;;;5.23;56.09;99709.81;4504101;31;20526;-81
2021/12/15 00:27:36;;;;;;;50.42;25.95;;;;;;;5.28;56.20;99699.28;4489641;31;20084;-80
2021/12/15 00:30:03;;;;;;;46.90;23.67;;;;;;;5.13;56.41;99714.34;4503592;31;20104;-80
2021/12/15 00:32:29;;;;;;;49.27;24.17;;;;;;;5.24;56.30;99713.31;4489250;31;20139;-80
2021/12/15 00:34:54;;;;;;;46.13;23.48;;;;;;;5.19;56.16;99717.75;4503372;31;20095;-80
2021/12/15 00:37:20;;;;;;;47.22;24.40;;;;;;;5.33;55.89;99707.88;4503525;31;20076;-80
2021/12/15 00:39:45;;;;;;;47.50;24.20;;;;;;;5.30;55.69;99721.03;4503398;31;20106;-80
2021/12/15 00:42:11;;;;;;;45.85;23.02;;;;;;;5.18;56.06;99718.66;4503516;31;20092;-80
2021/12/15 00:44:37;;;;;;;44.28;22.73;;;;;;;5.19;56.09;99715.97;4503498;31;20106;-81
2021/12/15 00:47:04;;;;;;;44.45;23.55;;;;;;;5.27;55.91;99726.28;4502935;31;20395;-80
2021/12/15 00:49:29;;;;;;;46.37;24.65;;;;;;;5.35;55.77;99729.66;4503497;31;20103;-80
2021/12/15 00:51:55;;;;;;;47.80;24.02;;;;;;;5.25;55.94;99726.34;4489036;31;20126;-80
2021/12/15 00:54:22;;;;;;;42.10;22.27;;;;;;;5.32;55.87;99733.16;4503673;31;20083;-80
2021/12/15 00:56:49;;;;;;;45.00;23.45;;;;;;;5.34;55.59;99727.06;4489420;31;20110;-80
2021/12/15 00:59:15;;;;;;;46.50;23.00;;;;;;;5.32;55.86;99740.16;4503374;31;20143;-80
2021/12/15 01:01:40;;;;;;;43.80;23.10;;;;;;;5.35;55.68;99734.87;4503637;31;20553;-80
2021/12/15 01:04:08;;;;;;;45.12;21.60;;;;;;;5.32;55.79;99730.56;4475861;31;20096;-80
2021/12/15 01:06:35;;;;;;;51.17;23.42;;;;;;;5.39;55.87;99733.94;4503329;31;20127;-80
2021/12/15 01:09:07;;;;;;;43.10;21.80;;;;;;;5.39;55.95;99739.16;4503331;31;20088;-80
2021/12/15 01:19:54;;;;;;;47.72;22.20;;;;;;;5.39;55.40;99743.50;4443277;32;20116;-80
2021/12/15 01:22:22;;;;;;;41.20;20.50;;;;;;;5.21;55.63;99747.31;4454259;32;20164;-80
2021/12/15 01:24:47;;;;;;;;;;;;;;;5.21;55.76;99736.84;4454206;32;20484;-80
2021/12/15 01:27:13;;;;;;;43.58;20.60;;;;;;;5.24;55.65;99739.44;4453994;32;20016;-80
2021/12/15 01:29:39;;;;;;;46.40;21.75;;;;;;;5.27;55.63;99740.25;4453904;32;20089;-80
2021/12/15 01:32:05;;;;;;;42.92;22.00;;;;;;;5.24;55.68;99742.03;4453882;32;20109;-80
2021/12/15 01:34:30;;;;;;;44.83;21.60;;;;;;;5.27;55.54;99739.34;4453873;32;20178;-80
2021/12/15 01:36:57;;;;;;;45.90;21.95;;;;;;;5.26;55.67;99737.66;4440880;32;20101;-80
2021/12/15 01:39:24;;;;;;;43.87;21.67;;;;;;;5.19;55.84;99731.66;4453974;32;20099;-80
2021/12/15 01:41:49;;;;;;;44.35;22.42;;;;;;;5.23;55.95;99737.69;4454037;32;20220;-80
2021/12/15 01:46:57;;;;;;;46.67;23.05;;;;;;;5.10;56.15;99732.69;4453768;32;20168;-80
2021/12/15 01:49:37;;;;;;;44.90;21.98;;;;;;;5.18;56.19;99739.53;4441820;32;20569;-80
2021/12/15 01:52:18;;;;;;;46.50;22.73;;;;;;;5.16;56.07;99736.94;4440980;32;20125;-81
2021/12/15 01:54:50;;;;;;;39.13;21.10;;;;;;;5.00;56.29;99736.31;4493197;31;20145;-81
2021/12/15 01:57:16;;;;;;;45.20;22.05;;;;;;;5.08;56.11;99739.69;4503076;31;20140;-80
2021/12/15 01:59:45;;;;;;;46.65;22.13;;;;;;;5.07;56.04;99739.72;4487397;31;20098;-80
2021/12/15 02:02:10;;;;;;;44.28;22.75;;;;;;;4.99;56.27;99734.63;4488843;31;20158;-80
2021/12/15 02:04:36;;;;;;;44.75;21.95;;;;;;;4.97;56.32;99744.22;4488400;31;20115;-80
2021/12/15 02:07:05;;;;;;;40.05;21.15;;;;;;;5.11;56.34;99742.22;4502948;31;20106;-80
2021/12/15 02:12:19;;;;;;;45.78;21.52;;;;;;;5.19;56.10;99738.62;4490796;31;20167;-80
2021/12/15 02:14:44;;;;;;;43.15;21.30;;;;;;;5.19;56.12;99736.88;4502842;31;20114;-80
2021/12/15 02:17:10;;;;;;;49.72;22.60;;;;;;;5.19;56.09;99739.50;4502998;31;20080;-81
2021/12/15 02:19:35;;;;;;;43.42;21.42;;;;;;;5.24;56.12;99737.69;4502709;31;20096;-80
2021/12/15 02:22:01;;;;;;;43.78;22.13;;;;;;;5.26;56.19;99729.81;4475302;31;20108;-81
2021/12/15 02:24:27;;;;;;;44.08;21.37;;;;;;;5.25;56.24;99735.91;4502850;31;20131;-80
2021/12/15 02:26:58;;;;;;;46.10;22.15;;;;;;;5.24;56.44;99735.06;4502772;31;20084;-80
2021/12/15 02:29:24;;;;;;;46.15;22.10;;;;;;;5.05;56.48;99734.50;4502809;31;20076;-80
2021/12/15 02:34:43;;;;;;;44.67;21.17;;;;;;;4.99;56.42;99734.63;4489865;31;20088;-81
2021/12/15 02:40:02;;;;;;;47.13;22.80;;;;;;;5.08;56.45;99724.03;4502628;31;20084;-79
2021/12/15 02:42:35;;;;;;;44.60;22.27;;;;;;;4.98;56.60;99740.72;4488725;31;20104;-80
2021/12/15 02:45:02;;;;;;;44.35;22.17;;;;;;;5.13;56.30;99730.00;4488488;31;20141;-80
2021/12/15 02:47:30;;;;;;;44.53;21.67;;;;;;;5.03;56.49;99736.28;4502532;31;20471;-80
2021/12/15 02:49:58;;;;;;;43.97;22.52;;;;;;;5.05;56.48;99734.50;4475168;31;20108;-80
2021/12/15 02:52:23;;;;;;;41.47;21.90;;;;;;;5.00;56.62;99730.25;4502521;31;20148;-79
2021/12/15 02:54:49;;;;;;;41.88;20.55;;;;;;;5.06;56.85;99727.53;4488226;31;20141;-80
2021/12/15 02:57:15;;;;;;;45.40;22.23;;;;;;;5.11;56.80;99736.16;4502477;31;20084;-80
2021/12/15 03:03:23;;;;;;;41.28;20.48;;;;;;;4.96;57.16;99739.03;4488535;31;20534;-80
2021/12/15 03:05:21;;;;;;;46.47;22.02;;;;;;;4.99;57.23;99733.75;4491720;31;20501;-79
2021/12/15 03:15:54;;;;;;;43.63;21.05;;;;;;;5.07;56.93;99727.50;4502336;31;20118;-79
2021/12/15 03:18:22;;;;;;;43.90;21.37;;;;;;;5.01;56.89;99717.16;4502224;31;20077;-80
2021/12/15 03:21:03;;;;;;;41.42;21.73;;;;;;;4.83;57.51;99717.47;4487621;31;20088;-80
2021/12/15 03:23:50;;;;;;;38.92;20.85;;;;;;;4.91;57.49;99713.00;4502121;31;20123;-80
2021/12/15 03:26:24;;;;;;;39.83;18.67;;;;;;;4.96;57.74;99711.16;4488412;31;20479;-80
2021/12/15 03:39:26;;;;;;;43.20;22.15;;;;;;;4.97;58.35;99706.81;4487379;31;20091;-80
2021/12/15 03:42:01;;;;;;;45.60;21.55;;;;;;;4.72;58.25;99713.28;4501868;31;20110;-79
2021/12/15 03:44:28;;;;;;;45.63;21.77;;;;;;;4.79;57.96;99708.84;4501820;31;20475;-80
2021/12/15 03:46:54;;;;;;;42.77;21.53;;;;;;;4.70;58.09;99717.66;4487490;31;20084;-80
2021/12/15 03:49:20;;;;;;;44.40;22.15;;;;;;;4.83;57.95;99714.84;4487295;31;20170;-80
2021/12/15 03:51:45;;;;;;;45.80;21.85;;;;;;;4.80;57.75;99723.59;4501786;31;20107;-80
2021/12/15 03:54:10;;;;;;;40.95;20.45;;;;;;;4.62;58.35;99727.37;4501946;31;20120;-80
2021/12/15 03:56:40;;;;;;;41.30;20.90;;;;;;;4.72;58.28;99726.34;4501510;31;20091;-80
2021/12/15 03:59:05;;;;;;;40.50;20.23;;;;;;;4.83;58.11;99714.84;4501359;31;20084;-80
2021/12/15 04:01:31;;;;;;;41.20;19.77;;;;;;;4.92;57.76;99714.72;4487441;31;20080;-80
2021/12/15 04:03:56;;;;;;;50.25;21.80;;;;;;;4.80;59.04;99712.31;4501525;31;20104;-79
2021/12/15 04:06:27;;;;;;;49.65;21.10;;;;;;;4.84;62.06;99711.37;4487170;31;20456;-79
2021/12/15 04:08:53;;;;;;;50.45;20.75;;;;;;;4.87;62.34;99711.34;4501526;31;20107;-79
2021/12/15 04:11:21;;;;;;;55.80;22.55;;;;;;;4.99;63.23;99720.72;4487026;31;20084;-79
2021/12/15 04:13:47;;;;;;;58.63;24.15;;;;;;;4.90;63.70;99725.16;4486995;31;20097;-79
2021/12/15 04:16:39;;;;;;;49.50;21.02;;;;;;;4.99;63.85;99731.16;4501429;31;20096;-80
2021/12/15 04:19:08;;;;;;;46.95;22.55;;;;;;;5.01;63.77;99737.22;4501042;31;20107;-80
2021/12/15 04:21:36;;;;;;;43.67;22.23;;;;;;;5.13;62.55;99731.78;4486910;31;20106;-80
2021/12/15 04:24:01;;;;;;;45.10;22.45;;;;;;;5.05;61.29;99726.69;4503373;31;20099;-80
2021/12/15 04:26:27;;;;;;;52.53;22.48;;;;;;;5.15;60.21;99723.91;4503710;31;20075;-80
2021/12/15 04:28:53;;;;;;;46.65;22.45;;;;;;;5.10;61.40;99716.16;4503586;31;20087;-79
2021/12/15 04:31:23;;;;;;;55.42;23.30;;;;;;;5.23;61.51;99729.84;4489249;31;20099;-79
2021/12/15 04:33:55;;;;;;;62.72;24.70;;;;;;;4.91;63.98;99734.75;4489268;31;20450;-79
2021/12/15 04:36:24;;;;;;;49.72;23.48;;;;;;;5.16;63.39;99736.94;4489429;31;20509;-79
2021/12/15 04:38:51;;;;;;;48.35;23.38;;;;;;;5.26;63.00;99748.94;4503533;31;20092;-79
2021/12/15 04:41:17;;;;;;;47.62;24.33;;;;;;;5.35;61.37;99750.56;4489211;31;20110;-79
2021/12/15 04:43:44;;;;;;;53.30;23.02;;;;;;;5.29;60.39;99753.25;4503635;31;20096;-79
2021/12/15 04:46:11;;;;;;;48.95;22.83;;;;;;;5.13;61.40;99747.44;4503500;31;20497;-79
2021/12/15 04:48:38;;;;;;;58.78;24.95;;;;;;;5.22;60.84;99755.13;4503543;31;20079;-79
2021/12/15 04:51:04;;;;;;;52.35;24.23;;;;;;;5.28;61.70;99751.53;4489239;31;20151;-79
2021/12/15 04:53:30;;;;;;;54.17;23.38;;;;;;;5.19;62.30;99752.56;4503608;31;20092;-79
2021/12/15 04:55:55;;;;;;;58.08;24.12;;;;;;;5.20;63.04;99751.69;4489533;31;20091;-79
2021/12/15 04:58:20;;;;;;;59.10;24.45;;;;;;;5.33;62.88;99760.16;4503397;31;20112;-79
2021/12/15 05:00:56;;;;;;;58.55;24.90;;;;;;;5.35;63.07;99755.78;4489127;31;20131;-79
2021/12/15 05:03:22;;;;;;;49.35;22.27;;;;;;;5.42;62.90;99753.91;4503397;31;20175;-81
2021/12/15 05:05:48;;;;;;;43.55;23.35;;;;;;;5.48;62.40;99759.03;4503378;31;20435;-81
2021/12/15 05:08:13;;;;;;;49.47;23.85;;;;;;;5.54;60.76;99761.50;4503405;31;20087;-82
2021/12/15 05:10:40;;;;;;;48.75;22.48;;;;;;;5.50;59.60;99763.34;4503429;31;20118;-81
2021/12/15 05:13:06;;;;;;;44.33;22.08;;;;;;;5.49;58.51;99776.44;4488968;31;20479;-82
2021/12/15 05:15:35;;;;;;;42.67;21.37;;;;;;;5.49;57.91;99774.69;4488869;31;20156;-82
2021/12/15 05:18:00;;;;;;;43.83;22.42;;;;;;;5.53;57.69;99780.72;4503172;31;20088;-81
2021/12/15 05:20:26;;;;;;;50.38;23.38;;;;;;;5.55;57.46;99785.94;4503225;31;20071;-82
2021/12/15 05:22:53;;;;;;;47.62;23.75;;;;;;;5.55;57.41;99780.69;4488868;31;20100;-82
2021/12/15 05:25:19;;;;;;;45.58;24.02;;;;;;;5.57;57.07;99785.00;4503256;31;20439;-81
2021/12/15 05:27:45;;;;;;;47.38;25.15;;;;;;;5.60;56.54;99791.91;4503291;31;20144;-81
2021/12/15 05:30:12;;;;;;;49.25;25.25;;;;;;;5.54;56.56;99792.88;4503119;31;20123;-82
2021/12/15 05:32:39;;;;;;;56.88;26.92;;;;;;;5.53;56.59;99798.16;4488860;31;20122;-81
2021/12/15 05:35:05;;;;;;;52.47;26.60;;;;;;;5.55;56.13;99792.00;4488753;31;20739;-82
2021/12/15 05:37:31;;;;;;;55.28;26.95;;;;;;;5.55;56.03;99802.47;4488806;31;20151;-82
2021/12/15 05:39:57;;;;;;;49.78;24.63;;;;;;;5.48;55.96;99799.06;4503069;31;20460;-82
2021/12/15 05:42:24;;;;;;;53.70;26.05;;;;;;;5.25;56.15;99796.88;4488826;31;20352;-81
2021/12/15 05:44:50;;;;;;;49.33;25.12;;;;;;;5.15;56.34;99800.50;4488954;31;20175;-81
2021/12/15 05:47:17;;;;;;;46.63;25.05;;;;;;;5.21;56.28;99810.00;4488827;31;20079;-81
2021/12/15 05:49:43;;;;;;;52.28;26.80;;;;;;;5.23;56.45;99811.69;4502968;31;20101;-81
2021/12/15 05:52:09;;;;;;;52.92;24.83;;;;;;;5.00;56.78;99813.81;4503005;31;20084;-81
2021/12/15 05:54:34;;;;;;;52.67;24.17;;;;;;;5.08;56.79;99815.44;4502978;31;20473;-81
2021/12/15 05:57:00;;;;;;;52.58;25.30;;;;;;;5.05;57.18;99818.09;4503093;31;20084;-82
2021/12/15 05:59:27;;;;;;;51.42;24.80;;;;;;;5.09;57.20;99819.75;4502757;31;20092;-82
2021/12/15 06:01:52;;;;;;;47.17;23.38;;;;;;;5.10;57.43;99824.09;4503023;31;20432;-82
2021/12/15 06:04:18;;;;;;;53.35;24.92;;;;;;;5.05;57.89;99830.28;4488650;31;20110;-83
2021/12/15 06:06:43;;;;;;;52.62;25.95;;;;;;;5.08;59.14;99831.09;4502956;31;20450;-82
2021/12/15 06:09:10;;;;;;;57.80;26.75;;;;;;;5.27;58.94;99839.53;4502874;31;20118;-83
2021/12/15 06:11:37;;;;;;;52.90;25.02;;;;;;;5.35;58.09;99838.50;4502874;31;20096;-81
2021/12/15 06:14:02;;;;;;;50.67;24.00;;;;;;;5.33;57.22;99838.53;4488498;31;20598;-81
2021/12/15 06:16:28;;;;;;;49.72;24.85;;;;;;;5.29;56.92;99856.03;4502890;31;20110;-81
2021/12/15 06:18:53;;;;;;;52.10;24.10;;;;;;;5.10;57.36;99858.06;4502683;31;20076;-81
2021/12/15 06:21:20;;;;;;;47.25;24.67;;;;;;;5.18;57.31;99860.56;4502871;31;20160;-80
2021/12/15 06:23:47;;;;;;;50.80;25.20;;;;;;;5.27;57.32;99862.16;4488592;31;20497;-81
2021/12/15 06:26:13;;;;;;;51.42;24.92;;;;;;;5.31;57.31;99858.59;4502852;31;20092;-81
2021/12/15 06:28:39;;;;;;;52.22;24.17;;;;;;;5.31;57.33;99858.59;4488448;31;20144;-81
2021/12/15 06:31:07;;;;;;;51.65;24.83;;;;;;;5.36;57.34;99851.56;4488382;31;20107;-81
2021/12/15 06:33:34;;;;;;;57.65;24.12;;;;;;;5.43;57.38;99852.34;4488462;31;20104;-82
2021/12/15 06:36:01;;;;;;;49.22;22.67;;;;;;;5.47;58.36;99856.63;4488352;31;20089;-82
2021/12/15 06:38:32;;;;;;;63.25;24.63;;;;;;;5.46;60.82;99854.88;4502451;31;20089;-83
2021/12/15 06:40:58;;;;;;;50.70;23.50;;;;;;;5.17;63.00;99853.59;4502576;31;20474;-81
2021/12/15 06:43:25;;;;;;;51.95;23.10;;;;;;;5.17;63.56;99861.44;4502603;31;20092;-81
2021/12/15 06:59:15;;;;;;;65.32;23.27;;;;;;;4.71;65.95;99875.12;4502245;31;20549;-81
2021/12/15 07:01:40;;;;;;;59.60;23.98;;;;;;;4.75;65.78;99874.22;4502417;31;20112;-81
2021/12/15 07:04:06;;;;;;;54.05;22.85;;;;;;;4.75;65.76;99883.78;4488070;31;20148;-81
2021/12/15 07:06:31;;;;;;;62.22;22.75;;;;;;;4.52;67.07;99895.41;4488122;31;20088;-81
2021/12/15 07:08:57;;;;;;;65.78;21.83;;;;;;;4.36;67.72;99893.84;4487962;31;20080;-81
2021/12/15 07:11:23;;;;;;;68.57;24.60;;;;;;;4.44;67.56;99892.91;4502413;31;20084;-81
2021/12/15 07:13:48;;;;;;;58.80;22.85;;;;;;;4.31;67.80;99894.78;4502247;31;20469;-81
2021/12/15 07:16:14;;;;;;;59.95;23.48;;;;;;;4.37;67.93;99880.78;4480997;31;20148;-81
2021/12/15 07:18:48;;;;;;;60.60;22.00;;;;;;;4.42;68.17;99889.41;4498297;31;20076;-81
2021/12/15 07:21:21;;;;;;;54.08;21.67;;;;;;;4.48;68.12;99884.16;4484862;32;20126;-81
2021/12/15 07:23:47;;;;;;;50.75;22.00;;;;;;;4.77;66.97;99885.53;4480278;32;20123;-80
2021/12/15 07:26:12;;;;;;;49.45;20.85;;;;;;;4.76;66.80;99889.00;4496188;31;20374;-81
2021/12/15 07:28:38;;;;;;;46.00;19.87;;;;;;;4.69;66.70;99889.97;4488454;31;20118;-81
2021/12/15 07:31:05;;;;;;;46.42;21.15;;;;;;;4.86;66.47;99885.38;4471236;32;20108;-81
2021/12/15 07:33:30;;;;;;;44.67;21.42;;;;;;;4.86;65.92;99880.16;4491448;31;20104;-80
2021/12/15 07:35:56;;;;;;;49.25;20.52;;;;;;;4.97;65.61;99877.41;4478331;32;20129;-80
2021/12/15 07:38:22;;;;;;;44.53;19.98;;;;;;;4.97;65.26;99884.38;4484480;32;20088;-81
2021/12/15 07:40:48;;;;;;;44.75;21.48;;;;;;;4.70;65.98;99884.72;4471084;32;20880;-80
2021/12/15 07:43:23;;;;;;;45.33;20.55;;;;;;;4.77;65.84;99900.31;4471525;32;20136;-80
2021/12/15 07:46:01;;;;;;;48.53;20.50;;;;;;;4.60;66.39;99897.94;4488047;31;20143;-77
2021/12/15 07:48:30;;;;;;;49.72;21.48;;;;;;;4.50;66.76;99910.19;4477965;32;20152;-77
2021/12/15 07:50:58;;;;;;;46.08;20.60;;;;;;;4.16;67.92;99909.72;4479102;32;20100;-78
2021/12/15 07:53:24;;;;;;;44.35;20.62;;;;;;;4.48;67.32;99909.34;4495187;31;20138;-79
2021/12/15 07:55:51;;;;;;;47.30;20.60;;;;;;;4.65;66.65;99912.63;4471073;32;20092;-78
2021/12/15 07:58:18;;;;;;;48.63;22.65;;;;;;;4.62;66.81;99917.91;4494746;31;20459;-77
2021/12/15 08:00:45;;;;;;;43.80;21.52;;;;;;;4.86;66.30;99908.00;4503688;31;20123;-76
2021/12/15 08:03:11;;;;;;;44.75;18.87;;;;;;;4.89;66.15;99913.22;4503509;31;20091;-75
2021/12/15 08:05:37;;;;;;;46.50;21.90;;;;;;;5.04;64.57;99927.78;4489077;31;20081;-75
2021/12/15 08:08:04;;;;;;;49.38;21.30;;;;;;;4.83;65.13;99929.81;4488927;31;20087;-75
2021/12/15 08:10:29;;;;;;;44.47;19.85;;;;;;;4.60;66.11;99937.06;4502699;31;20088;-76
2021/12/15 08:12:55;;;;;;;46.08;22.35;;;;;;;4.49;66.66;99942.41;4503605;31;20153;-77
2021/12/15 08:15:20;;;;;;;48.97;22.05;;;;;;;4.61;66.63;99933.56;4489011;31;20106;-76
2021/12/15 08:17:51;;;;;;;47.30;21.15;;;;;;;4.81;66.37;99936.81;4503772;31;20076;-77
2021/12/15 08:20:17;;;;;;;49.70;22.05;;;;;;;4.98;65.99;99946.16;4503733;31;20084;-76
2021/12/15 08:22:43;;;;;;;53.15;22.08;;;;;;;5.15;65.69;99941.56;4503850;31;20096;-76
2021/12/15 08:25:10;;;;;;;45.63;20.83;;;;;;;5.05;65.08;99947.81;4489498;31;20128;-75
2021/12/15 08:27:36;;;;;;;42.03;19.33;;;;;;;5.08;65.72;99946.03;4503378;31;20131;-77
2021/12/15 08:30:05;;;;;;;41.28;18.60;;;;;;;4.89;66.17;99949.75;4503726;31;20372;-77
2021/12/15 08:32:31;;;;;;;36.10;16.98;;;;;;;5.30;65.35;99949.19;4489370;31;20127;-76
2021/12/15 08:34:56;;;;;;;37.10;17.05;;;;;;;5.62;64.22;99960.03;4503681;31;20080;-76
2021/12/15 08:37:22;;;;;;;42.65;19.40;;;;;;;5.78;63.86;99958.94;4476259;31;20106;-75
2021/12/15 08:39:47;;;;;;;46.55;21.60;;;;;;;5.96;63.53;99956.94;4503237;31;20076;-78
2021/12/15 08:42:13;;;;;;;51.78;20.95;;;;;;;6.10;62.84;99960.16;4489244;31;20134;-78
2021/12/15 08:44:39;;;;;;;45.03;21.52;;;;;;;6.22;62.39;99959.06;4489240;31;20102;-78
2021/12/15 08:47:06;;;;;;;41.37;20.02;;;;;;;6.35;62.20;99957.97;4503345;31;20071;-78
2021/12/15 08:49:32;;;;;;;44.05;20.80;;;;;;;6.50;61.06;99962.91;4503595;31;20096;-79
2021/12/15 08:51:58;;;;;;;41.40;20.10;;;;;;;6.57;60.71;99957.56;4489087;31;20140;-77
2021/12/15 08:54:23;;;;;;;44.33;20.95;;;;;;;6.65;60.69;99963.53;4489092;31;20124;-78
2021/12/15 08:56:51;;;;;;;44.10;20.90;;;;;;;6.74;60.10;99965.06;4489116;31;20076;-78
2021/12/15 08:59:18;;;;;;;44.03;20.67;;;;;;;6.79;59.91;99961.47;4503194;31;20156;-78
2021/12/15 09:01:44;;;;;;;47.88;21.75;;;;;;;6.80;59.87;99959.72;4503494;31;20117;-77
2021/12/15 09:04:10;;;;;;;45.45;22.10;;;;;;;6.88;59.27;99956.06;4489077;31;20083;-78
2021/12/15 09:06:38;;;;;;;41.05;19.92;;;;;;;7.03;59.26;99951.38;4489122;31;20340;-78
2021/12/15 09:09:04;;;;;;;;;;;;;;;7.18;58.75;99950.19;4489140;31;20104;-77
2021/12/15 09:11:29;;;;;;;45.75;20.90;;;;;;;7.31;58.43;99956.88;4503370;31;20318;-78
2021/12/15 09:13:57;;;;;;;46.58;22.87;;;;;;;7.40;58.11;99955.81;4488871;31;20096;-78
2021/12/15 09:16:23;;;;;;;44.72;21.50;;;;;;;7.50;57.87;99957.34;4488919;31;20106;-77
2021/12/15 09:18:50;;;;;;;45.08;21.67;;;;;;;7.64;57.04;99957.84;4488966;31;20258;-78
2021/12/15 09:21:18;;;;;;;42.95;20.75;;;;;;;7.66;57.14;99958.69;4503255;31;20100;-78
2021/12/15 09:23:44;;;;;;;43.35;20.77;;;;;;;7.77;56.84;99947.94;4503250;31;20084;-78
2021/12/15 09:26:10;;;;;;;41.97;21.45;;;;;;;7.79;56.90;99946.13;4475730;31;20102;-78
2021/12/15 09:28:37;;;;;;;45.03;21.90;;;;;;;7.90;57.03;99951.12;4488866;31;20108;-78
2021/12/15 09:31:04;;;;;;;39.92;19.67;;;;;;;8.01;56.37;99958.72;4488980;31;20497;-78
2021/12/15 09:33:38;;;;;;;41.17;19.60;;;;;;;8.10;55.88;99953.25;4488877;31;20106;-78
2021/12/15 09:36:04;;;;;;;51.33;23.25;;;;;;;8.21;54.95;99945.97;4503167;31;20088;-78
2021/12/15 09:38:30;;;;;;;46.75;23.65;;;;;;;8.18;55.02;99943.41;4503082;31;20083;-78
2021/12/15 09:40:58;;;;;;;51.65;25.67;;;;;;;8.27;54.93;99945.78;4503064;31;20465;-78
2021/12/15 09:43:28;;;;;;;56.90;26.02;;;;;;;8.33;54.51;99947.37;4488680;31;20447;-78
2021/12/15 09:46:05;;;;;;;54.08;26.00;;;;;;;8.42;54.23;99935.78;4503061;31;20141;-78
2021/12/15 10:03:03;;;;;;;78.25;35.00;;;;;;;8.71;52.93;99945.53;4392497;32;20172;-78
2021/12/15 10:05:53;;;;;;;62.05;27.60;;;;;;;8.77;52.62;99934.81;4392441;32;20094;-78
2021/12/15 10:11:41;;;;;;;48.33;22.48;;;;;;;8.91;51.95;99939.69;4392495;32;20137;-78
2021/12/15 10:19:40;;;;;;;79.70;36.10;;;;;;;9.11;51.72;99946.09;4391636;32;20525;-78
2021/12/15 10:22:31;;;;;;;85.93;36.88;;;;;;;9.13;51.39;99947.78;4392066;32;20102;-78
2021/12/15 10:25:06;;;;;;;81.10;36.17;;;;;;;9.11;51.46;99943.47;4392449;32;20172;-78
2021/12/15 10:27:49;;;;;;;72.90;34.55;;;;;;;9.21;51.31;99948.44;4398833;32;20086;-78
2021/12/15 10:30:32;;;;;;;63.65;28.08;;;;;;;9.20;51.13;99944.06;4463201;31;20499;-78
2021/12/15 10:32:59;;;;;;;71.65;32.08;;;;;;;9.27;50.54;99949.97;4502790;31;20106;-78
2021/12/15 10:35:32;;;;;;;81.45;35.78;;;;;;;9.23;50.85;99949.25;4488560;31;20167;-78
2021/12/15 10:38:19;;;;;;;81.32;38.13;;;;;;;9.41;50.60;99953.06;4502653;31;20359;-78
2021/12/15 10:40:55;;;;;;;98.40;39.65;;;;;;;9.40;50.55;99951.31;4502776;31;20088;-78
2021/12/15 10:43:23;;;;;;;77.12;36.25;;;;;;;9.48;50.48;99953.72;4502801;31;20139;-78
2021/12/15 10:45:57;;;;;;;81.03;35.10;;;;;;;9.51;50.60;99951.00;4488448;31;20088;-78
2021/12/15 10:48:46;;;;;;;46.78;22.85;;;;;;;9.57;50.57;99942.06;4502350;31;20088;-78
2021/12/15 10:51:28;;;;;;;54.50;25.73;;;;;;;9.63;49.14;99940.06;4502295;31;20151;-78
2021/12/15 10:53:57;;;;;;;84.03;35.75;;;;;;;9.78;49.33;99945.78;4502727;31;20340;-78
2021/12/15 10:56:27;;;;;;;93.15;38.65;;;;;;;9.84;49.74;99943.78;4488336;31;20100;-78
2021/12/15 10:58:57;;;;;;;84.55;37.85;;;;;;;10.00;49.64;99948.53;4488165;31;20522;-78
2021/12/15 11:01:36;;;;;;;85.50;37.88;;;;;;;10.02;49.59;99947.59;4488349;31;20136;-78
2021/12/15 11:04:23;;;;;;;88.97;39.17;;;;;;;10.11;49.50;99948.19;4502388;31;20126;-77
2021/12/15 11:07:20;;;;;;;87.70;38.78;;;;;;;10.19;49.49;99944.38;4490907;31;20518;-78
2021/12/15 11:10:05;;;;;;;79.12;36.60;;;;;;;10.24;48.86;99939.81;4502420;31;20088;-78
2021/12/15 11:12:35;;;;;;;92.32;38.00;;;;;;;10.35;49.06;99942.13;4502195;31;20071;-78
2021/12/15 11:15:15;;;;;;;86.40;38.15;;;;;;;10.34;48.83;99947.44;4487825;31;20471;-78
2021/12/15 11:17:42;;;;;;;86.40;39.35;;;;;;;10.34;48.89;99944.78;4502211;31;20451;-78
2021/12/15 11:20:10;;;;;;;86.28;39.00;;;;;;;10.38;48.71;99944.62;4487806;31;20084;-78
2021/12/15 11:22:44;;;;;;;90.35;39.42;;;;;;;10.34;48.46;99942.16;4502140;31;20088;-77
2021/12/15 11:25:11;;;;;;;87.35;38.42;;;;;;;10.38;48.59;99939.34;4488005;31;20096;-78
2021/12/15 11:27:38;;;;;;;84.87;38.22;;;;;;;10.28;48.57;99939.72;4487790;31;20126;-78
2021/12/15 11:30:16;;;;;;;86.18;39.30;;;;;;;10.29;48.80;99941.41;4502258;31;20419;-78
2021/12/15 11:32:49;;;;;;;84.93;38.20;;;;;;;10.33;48.80;99951.81;4489404;31;20091;-78
2021/12/15 11:35:20;;;;;;;87.60;38.30;;;;;;;10.24;48.54;99952.12;4504063;31;20095;-78
2021/12/15 11:37:54;;;;;;;82.05;37.08;;;;;;;10.21;48.91;99944.31;4489716;31;20095;-78
2021/12/15 11:40:35;;;;;;;86.80;38.53;;;;;;;10.16;49.34;99938.34;4489778;31;20076;-78
2021/12/15 11:43:03;;;;;;;87.28;38.80;;;;;;;10.19;49.55;99936.47;4503855;31;20088;-78
2021/12/15 11:45:29;;;;;;;88.68;39.88;;;;;;;10.10;49.26;99934.16;4504099;31;20114;-78
2021/12/15 11:48:20;;;;;;;88.15;38.15;;;;;;;10.07;49.46;99936.03;4489586;31;20099;-78
2021/12/15 11:50:47;;;;;;;76.78;36.95;;;;;;;9.98;49.54;99935.41;4478525;31;20174;-78
2021/12/15 11:53:21;;;;;;;84.53;39.08;;;;;;;9.95;49.97;99930.28;4489481;31;20372;-78
2021/12/15 11:55:48;;;;;;;83.85;38.28;;;;;;;9.90;50.45;99926.94;4476481;31;20105;-78
2021/12/15 11:58:13;;;;;;;94.05;39.50;;;;;;;9.99;50.60;99929.25;4503502;31;20493;-78
2021/12/15 12:00:39;;;;;;;84.95;38.22;;;;;;;10.03;49.82;99930.88;4503866;31;20110;-78
2021/12/15 12:03:04;;;;;;;87.07;38.92;;;;;;;10.09;49.65;99926.31;4503836;31;20124;-78
2021/12/15 12:05:35;;;;;;;83.25;38.10;;;;;;;9.69;50.80;99931.13;4503631;31;20088;-78
2021/12/15 12:08:07;;;;;;;88.00;39.00;;;;;;;9.94;50.51;99932.97;4489505;31;20100;-78
2021/12/15 12:10:48;;;;;;;85.00;39.53;;;;;;;10.01;50.07;99937.09;4489989;31;20178;-78
2021/12/15 12:13:21;;;;;;;86.03;38.70;;;;;;;10.06;50.03;99929.03;4504011;31;20088;-78
2021/12/15 12:15:49;;;;;;;84.82;38.97;;;;;;;10.02;50.03;99930.91;4489898;31;20143;-78
2021/12/15 12:18:20;;;;;;;86.72;39.30;;;;;;;10.03;50.16;99922.97;4503979;31;20137;-78
2021/12/15 12:20:51;;;;;;;96.43;41.30;;;;;;;10.10;50.12;99918.38;4503929;31;20147;-79
2021/12/15 12:23:26;;;;;;;90.82;39.50;;;;;;;10.07;50.00;99925.50;4489733;31;20136;-79
2021/12/15 12:26:01;;;;;;;87.53;39.20;;;;;;;10.12;49.89;99920.94;4489663;31;20540;-79
2021/12/15 12:28:30;;;;;;;79.97;38.47;;;;;;;10.04;50.09;99922.06;4489939;31;20103;-78
2021/12/15 12:31:02;;;;;;;90.75;41.08;;;;;;;9.99;50.18;99933.66;4489496;31;20110;-78
2021/12/15 12:33:29;;;;;;;86.57;39.38;;;;;;;9.96;50.12;99928.50;4476353;31;20548;-79
2021/12/15 12:36:08;;;;;;;81.12;39.20;;;;;;;9.92;50.37;99934.78;4489371;31;20112;-79
2021/12/15 12:38:34;;;;;;;;;;;;;;;9.88;50.71;99938.44;4489698;31;20096;-79
2021/12/15 12:41:06;;;;;;;83.40;39.33;;;;;;;9.89;50.85;99940.13;4489232;31;19972;-79
2021/12/15 12:43:39;;;;;;;81.12;37.22;;;;;;;9.85;50.98;99934.13;4502967;31;20095;-78
2021/12/15 12:46:20;;;;;;;90.47;37.67;;;;;;;9.85;51.12;99934.13;4503531;31;20119;-79
2021/12/15 13:01:07;;;;;;;91.72;39.92;;;;;;;9.77;51.52;99925.63;4438443;32;20171;-79